createdAt,value
2018-06-15T00:01:11.690Z,7.53
2018-06-15T00:03:44.087Z,8.40
2018-06-15T00:06:16.456Z,7.93
2018-06-15T00:08:49.149Z,7.90
2018-06-15T00:11:21.785Z,8.60
2018-06-15T00:13:54.481Z,7.90
2018-06-15T00:16:27.233Z,8.53
2018-06-15T00:18:59.633Z,7.17
2018-06-15T00:21:32.014Z,7.43
2018-06-15T00:24:04.437Z,7.70
2018-06-15T00:26:37.125Z,7.70
2018-06-15T00:29:09.559Z,7.50
2018-06-15T00:31:42.230Z,8.10
2018-06-15T00:34:14.657Z,6.43
2018-06-15T00:36:47.072Z,7.40
2018-06-15T00:39:19.485Z,6.43
2018-06-15T00:41:51.873Z,7.23
2018-06-15T00:44:24.557Z,8.20
2018-06-15T00:46:56.953Z,7.73
2018-06-15T00:49:29.350Z,8.73
2018-06-15T00:52:01.792Z,7.40
2018-06-15T00:54:34.178Z,7.53
2018-06-15T00:57:17.870Z,7.50
2018-06-15T00:59:50.605Z,7.50
2018-06-15T01:02:23.285Z,7.57
2018-06-15T01:04:55.695Z,8.00
2018-06-15T01:07:28.402Z,7.77
2018-06-15T01:10:01.117Z,7.37
2018-06-15T01:12:33.517Z,7.57
2018-06-15T01:15:05.910Z,7.13
2018-06-15T01:17:38.312Z,7.70
2018-06-15T01:20:11.113Z,7.40
2018-06-15T01:22:43.489Z,7.50
2018-06-15T01:25:15.889Z,7.07
2018-06-15T01:27:48.266Z,7.10
2018-06-15T01:30:20.663Z,7.60
2018-06-15T01:32:53.060Z,7.37
2018-06-15T01:35:25.457Z,7.03
2018-06-15T01:37:57.837Z,7.20
2018-06-15T01:40:30.881Z,7.07
2018-06-15T01:43:03.269Z,7.97
2018-06-15T01:45:35.670Z,8.20
2018-06-15T01:48:08.637Z,7.23
2018-06-15T01:50:41.317Z,7.80
2018-06-15T01:53:13.994Z,7.40
2018-06-15T01:55:46.656Z,7.97
2018-06-15T01:58:19.249Z,8.10
2018-06-15T02:00:51.873Z,8.40
2018-06-15T02:03:24.255Z,8.10
2018-06-15T02:05:56.633Z,7.77
2018-06-15T02:08:29.347Z,8.53
2018-06-15T02:11:01.750Z,8.13
2018-06-15T02:13:34.438Z,8.20
2018-06-15T02:16:07.410Z,8.37
2018-06-15T02:18:40.075Z,8.73
2018-06-15T02:21:12.824Z,7.87
2018-06-15T02:23:45.489Z,8.43
2018-06-15T02:26:17.954Z,8.20
2018-06-15T02:28:50.646Z,7.30
2018-06-15T02:31:23.053Z,8.53
2018-06-15T02:33:55.794Z,8.83
2018-06-15T02:36:28.222Z,8.47
2018-06-15T02:39:00.608Z,8.57
2018-06-15T02:41:33.022Z,8.47
2018-06-15T02:44:05.973Z,8.17
2018-06-15T02:46:38.381Z,9.57
2018-06-15T02:49:10.878Z,8.80
2018-06-15T02:51:43.275Z,10.20
2018-06-15T02:54:15.742Z,9.77
2018-06-15T02:56:48.493Z,8.33
2018-06-15T02:59:21.125Z,9.30
2018-06-15T03:01:53.543Z,9.07
2018-06-15T03:04:26.233Z,9.23
2018-06-15T03:06:58.645Z,9.80
2018-06-15T03:09:31.019Z,10.40
2018-06-15T03:12:03.713Z,10.10
2018-06-15T03:14:36.106Z,11.17
2018-06-15T03:17:08.810Z,10.50
2018-06-15T03:19:41.432Z,10.67
2018-06-15T03:22:14.145Z,10.10
2018-06-15T03:24:46.535Z,10.33
2018-06-15T03:27:18.941Z,9.97
2018-06-15T03:29:51.572Z,10.73
2018-06-15T03:32:23.966Z,10.60
2018-06-15T03:34:56.347Z,10.37
2018-06-15T03:37:28.789Z,9.43
2018-06-15T03:40:01.192Z,10.10
2018-06-15T03:42:33.610Z,10.33
2018-06-15T03:45:06.028Z,10.80
2018-06-15T03:47:38.405Z,10.07
2018-06-15T03:50:10.818Z,11.07
2018-06-15T03:52:43.511Z,10.40
2018-06-15T03:55:15.915Z,9.70
2018-06-15T03:57:48.600Z,11.17
2018-06-15T04:00:21.024Z,9.70
2018-06-15T04:02:53.405Z,9.90
2018-06-15T04:05:25.798Z,10.73
2018-06-15T04:07:58.188Z,9.43
2018-06-15T04:10:30.826Z,11.20
2018-06-15T04:13:03.786Z,10.47
2018-06-15T04:15:36.426Z,11.63
2018-06-15T04:18:08.813Z,10.57
2018-06-15T04:20:41.246Z,11.13
2018-06-15T04:23:13.909Z,10.93
2018-06-15T04:25:46.590Z,11.70
2018-06-15T04:28:19.026Z,11.00
2018-06-15T04:30:51.461Z,10.57
2018-06-15T04:33:23.946Z,10.70
2018-06-15T04:35:56.347Z,9.17
2018-06-15T04:38:28.722Z,9.30
2018-06-15T04:41:01.375Z,9.97
2018-06-15T04:43:33.754Z,9.03
2018-06-15T04:46:06.193Z,9.87
2018-06-15T04:48:38.618Z,10.17
2018-06-15T04:51:11.029Z,9.30
2018-06-15T04:53:43.709Z,8.80
2018-06-15T04:56:16.190Z,9.63
2018-06-15T04:58:48.581Z,9.63
2018-06-15T05:01:20.991Z,9.20
2018-06-15T05:03:53.687Z,9.40
2018-06-15T05:06:26.318Z,10.23
2018-06-15T05:08:58.954Z,10.43
2018-06-15T05:11:31.358Z,10.80
2018-06-15T05:14:03.769Z,9.23
2018-06-15T05:16:36.173Z,10.60
2018-06-15T05:19:08.891Z,10.33
2018-06-15T05:21:41.534Z,10.20
2018-06-15T05:24:14.190Z,9.77
2018-06-15T05:26:46.618Z,11.17
2018-06-15T05:29:18.999Z,11.57
2018-06-15T05:31:51.398Z,12.03
2018-06-15T05:34:23.810Z,12.43
2018-06-15T05:36:56.210Z,11.70
2018-06-15T05:39:29.195Z,11.77
2018-06-15T05:42:01.636Z,11.70
2018-06-15T05:44:34.037Z,11.10
2018-06-15T05:47:06.350Z,10.20
2018-06-15T05:49:38.780Z,10.60
2018-06-15T05:52:11.184Z,9.87
2018-06-15T05:54:43.581Z,11.73
2018-06-15T05:57:16.003Z,11.50
2018-06-15T05:59:48.681Z,11.83
2018-06-15T06:02:21.096Z,11.00
2018-06-15T06:04:53.487Z,10.60
2018-06-15T06:07:26.166Z,11.17
2018-06-15T06:09:58.675Z,9.63
2018-06-15T06:12:31.085Z,10.90
2018-06-15T06:15:03.796Z,9.73
2018-06-15T06:17:36.207Z,11.10
2018-06-15T06:20:08.779Z,9.73
2018-06-15T06:22:41.197Z,11.50
2018-06-15T06:25:13.590Z,9.93
2018-06-15T06:27:46.095Z,10.23
2018-06-15T06:30:18.477Z,10.07
2018-06-15T06:32:51.454Z,8.33
2018-06-15T06:35:24.081Z,7.53
2018-06-15T06:37:56.820Z,6.07
2018-06-15T06:40:29.458Z,6.80
2018-06-15T06:43:01.853Z,6.00
2018-06-15T06:45:34.242Z,8.35
2018-06-15T06:48:06.808Z,7.70
2018-06-15T06:50:39.546Z,7.60
2018-06-15T06:53:11.873Z,7.80
2018-06-15T06:55:44.335Z,7.35
2018-06-15T06:58:16.750Z,8.10
2018-06-15T07:00:49.474Z,8.30
2018-06-15T07:03:21.884Z,8.88
2018-06-15T07:05:54.279Z,8.90
2018-06-15T07:08:26.677Z,6.17
2018-06-15T07:10:59.188Z,8.95
2018-06-15T07:13:31.867Z,6.85
2018-06-15T07:16:04.580Z,7.10
2018-06-15T07:18:37.280Z,6.72
2018-06-15T07:21:09.669Z,7.22
2018-06-15T07:23:42.383Z,7.00
2018-06-15T07:26:15.094Z,9.13
2018-06-15T07:28:47.505Z,7.67
2018-06-15T07:31:19.909Z,8.98
2018-06-15T07:33:52.325Z,7.53
2018-06-15T07:36:25.052Z,7.87
2018-06-15T07:38:57.453Z,6.45
2018-06-15T07:41:30.094Z,6.28
2018-06-15T07:44:02.498Z,6.28
2018-06-15T07:46:34.897Z,7.10
2018-06-15T07:49:07.602Z,5.45
2018-06-15T07:51:40.262Z,5.97
2018-06-15T07:54:12.961Z,7.33
2018-06-15T07:56:45.345Z,5.70
2018-06-15T07:59:17.737Z,6.67
2018-06-15T08:01:50.193Z,5.30
2018-06-15T08:04:22.580Z,5.40
2018-06-15T08:06:54.966Z,5.78
2018-06-15T08:09:27.670Z,6.08
2018-06-15T08:12:00.055Z,4.70
2018-06-15T08:14:32.674Z,5.83
2018-06-15T08:17:05.160Z,5.50
2018-06-15T08:19:37.903Z,6.67
2018-06-15T08:22:10.119Z,6.37
2018-06-15T08:24:42.505Z,5.62
2018-06-15T08:27:15.137Z,5.20
2018-06-15T08:29:47.819Z,4.72
2018-06-15T08:32:20.515Z,5.83
2018-06-15T08:34:53.478Z,6.83
2018-06-15T08:37:26.321Z,7.03
2018-06-15T08:39:59.002Z,7.25
2018-06-15T08:42:31.385Z,5.50
2018-06-15T08:45:04.045Z,5.00
2018-06-15T08:47:36.449Z,6.42
2018-06-15T08:50:08.881Z,5.65
2018-06-15T08:52:41.352Z,6.70
2018-06-15T08:55:13.701Z,5.62
2018-06-15T08:57:46.185Z,5.47
2018-06-15T09:00:18.626Z,5.37
2018-06-15T09:02:51.012Z,5.72
2018-06-15T09:05:23.417Z,6.90
2018-06-15T09:07:55.809Z,6.47
2018-06-15T09:10:28.197Z,6.72
2018-06-15T09:13:00.416Z,6.17
2018-06-15T09:15:33.468Z,6.28
2018-06-15T09:18:06.118Z,6.47
2018-06-15T09:20:38.515Z,6.40
2018-06-15T09:23:10.906Z,5.67
2018-06-15T09:25:43.353Z,5.60
2018-06-15T09:28:15.989Z,6.53
2018-06-15T09:30:48.408Z,6.30
2018-06-15T09:33:20.794Z,6.70
2018-06-15T09:35:53.195Z,5.83
2018-06-15T09:38:25.587Z,5.75
2018-06-15T09:40:57.992Z,5.78
2018-06-15T09:43:30.625Z,5.33
2018-06-15T09:46:03.328Z,5.25
2018-06-15T09:48:36.250Z,4.10
2018-06-15T09:51:09.093Z,4.62
2018-06-15T09:53:41.473Z,3.77
2018-06-15T09:56:13.918Z,3.80
2018-06-15T09:58:46.309Z,3.70
2018-06-15T10:01:19.006Z,4.08
2018-06-15T10:03:51.657Z,4.22
2018-06-15T10:06:24.062Z,4.00
2018-06-15T10:08:56.760Z,4.72
2018-06-15T10:11:29.385Z,4.33
2018-06-15T10:14:02.130Z,3.90
2018-06-15T10:16:34.603Z,4.03
2018-06-15T10:19:07.247Z,4.15
2018-06-15T10:21:39.901Z,3.52
2018-06-15T10:24:12.602Z,4.47
2018-06-15T10:26:44.981Z,3.75
2018-06-15T10:29:17.680Z,4.40
2018-06-15T10:31:50.065Z,5.12
2018-06-15T10:34:22.552Z,4.58
2018-06-15T10:36:55.268Z,3.83
2018-06-15T10:39:27.736Z,4.10
2018-06-15T10:42:00.410Z,4.83
2018-06-15T10:44:33.122Z,4.20
2018-06-15T10:47:05.505Z,4.25
2018-06-15T10:49:37.901Z,4.60
2018-06-15T10:52:10.926Z,4.22
2018-06-15T10:54:43.925Z,4.28
2018-06-15T10:57:16.630Z,4.58
2018-06-15T10:59:49.310Z,4.83
2018-06-15T11:02:22.084Z,3.62
2018-06-15T11:04:54.726Z,4.53
2018-06-15T11:07:27.114Z,3.62
2018-06-15T11:09:59.537Z,3.00
2018-06-15T11:12:31.906Z,2.85
2018-06-15T11:15:04.872Z,2.92
2018-06-15T11:17:37.283Z,2.90
2018-06-15T11:20:09.694Z,2.62
2018-06-15T11:22:42.090Z,2.30
2018-06-15T11:25:14.560Z,2.45
2018-06-15T11:27:46.969Z,3.45
2018-06-15T11:30:19.614Z,3.00
2018-06-15T11:32:52.242Z,3.12
2018-06-15T11:35:24.950Z,3.15
2018-06-15T11:37:57.613Z,2.67
2018-06-15T11:40:30.015Z,2.65
2018-06-15T11:43:02.699Z,2.60
2018-06-15T11:45:35.099Z,2.25
2018-06-15T11:48:07.486Z,2.40
2018-06-15T11:50:39.927Z,3.15
2018-06-15T11:53:12.599Z,2.75
2018-06-15T11:55:45.273Z,2.55
2018-06-15T11:58:17.903Z,2.60
2018-06-15T12:00:50.622Z,2.80
2018-06-15T12:03:23.018Z,2.90
2018-06-15T12:05:55.431Z,3.15
2018-06-15T12:08:27.826Z,3.12
2018-06-15T12:11:00.526Z,2.95
2018-06-15T12:13:32.946Z,3.58
2018-06-15T12:16:05.682Z,3.87
2018-06-15T12:18:38.298Z,3.30
2018-06-15T12:21:10.694Z,3.47
2018-06-15T12:23:43.097Z,3.27
2018-06-15T12:26:15.489Z,3.17
2018-06-15T12:28:48.185Z,3.30
2018-06-15T12:31:20.577Z,3.30
2018-06-15T12:33:52.979Z,3.02
2018-06-15T12:36:25.647Z,3.20
2018-06-15T12:38:58.310Z,2.72
2018-06-15T12:41:30.981Z,2.50
2018-06-15T12:44:03.674Z,2.67
2018-06-15T12:46:36.342Z,2.65
2018-06-15T12:49:08.761Z,2.70
2018-06-15T12:51:41.548Z,3.00
2018-06-15T12:54:13.954Z,3.33
2018-06-15T12:56:46.674Z,2.90
2018-06-15T12:59:19.760Z,2.70
2018-06-15T13:01:52.174Z,2.75
2018-06-15T13:04:24.610Z,3.25
2018-06-15T13:06:57.020Z,3.40
2018-06-15T13:09:29.647Z,2.80
2018-06-15T13:12:02.357Z,2.58
2018-06-15T13:14:34.754Z,3.22
2018-06-15T13:17:07.154Z,3.10
2018-06-15T13:19:39.609Z,3.12
2018-06-15T13:22:12.561Z,2.80
2018-06-15T13:24:45.036Z,3.25
2018-06-15T13:27:17.918Z,3.00
2018-06-15T13:29:50.573Z,2.50
2018-06-15T13:32:22.977Z,2.42
2018-06-15T13:34:55.718Z,2.80
2018-06-15T13:37:28.738Z,2.67
2018-06-15T13:40:01.126Z,2.10
2018-06-15T13:42:33.849Z,2.67
2018-06-15T13:45:06.527Z,1.95
2018-06-15T13:47:38.945Z,2.20
2018-06-15T13:50:11.350Z,2.22
2018-06-15T13:52:43.754Z,2.22
2018-06-15T13:55:16.430Z,1.98
2018-06-15T13:57:48.850Z,1.95
2018-06-15T14:00:21.320Z,1.67
2018-06-15T14:02:53.670Z,1.90
2018-06-15T14:05:26.309Z,1.82
2018-06-15T14:07:59.004Z,2.35
2018-06-15T14:10:31.513Z,2.00
2018-06-15T14:13:04.124Z,1.87
2018-06-15T14:15:36.522Z,1.98
2018-06-15T14:18:08.938Z,1.90
2018-06-15T14:20:41.345Z,1.87
2018-06-15T14:23:13.745Z,1.90
2018-06-15T14:25:46.213Z,1.82
2018-06-15T14:28:18.628Z,2.05
2018-06-15T14:30:51.594Z,1.70
2018-06-15T14:33:24.022Z,1.90
2018-06-15T14:35:56.710Z,2.35
2018-06-15T14:38:29.341Z,2.08
2018-06-15T14:41:01.737Z,1.70
2018-06-15T14:43:34.174Z,1.62
2018-06-15T14:46:06.582Z,1.82
2018-06-15T14:48:39.040Z,1.80
2018-06-15T14:51:11.434Z,1.82
2018-06-15T14:53:43.817Z,2.05
2018-06-15T14:56:16.237Z,2.05
2018-06-15T14:58:48.461Z,1.75
2018-06-15T15:01:20.889Z,1.87
2018-06-15T15:03:53.774Z,2.10
2018-06-15T15:06:26.505Z,1.82
2018-06-15T15:08:58.919Z,2.20
2018-06-15T15:11:31.142Z,1.80
2018-06-15T15:14:03.542Z,2.08
2018-06-15T15:16:35.932Z,2.02
2018-06-15T15:19:08.395Z,1.98
2018-06-15T15:21:41.029Z,1.80
2018-06-15T15:24:13.419Z,1.80
2018-06-15T15:26:46.352Z,1.80
2018-06-15T15:29:18.741Z,1.77
2018-06-15T15:31:51.120Z,2.22
2018-06-15T15:34:23.515Z,1.60
2018-06-15T15:36:55.963Z,1.80
2018-06-15T15:39:28.366Z,1.90
2018-06-15T15:42:01.053Z,1.92
2018-06-15T15:44:33.561Z,1.85
2018-06-15T15:47:05.942Z,1.75
2018-06-15T15:49:38.441Z,1.92
2018-06-15T15:52:11.130Z,1.67
2018-06-15T15:54:43.549Z,2.20
2018-06-15T15:57:15.938Z,1.95
2018-06-15T15:59:48.346Z,1.90
2018-06-15T16:02:21.065Z,1.70
2018-06-15T16:04:53.763Z,1.77
2018-06-15T16:07:26.169Z,1.77
2018-06-15T16:09:58.889Z,1.80
2018-06-15T16:12:31.593Z,1.98
2018-06-15T16:15:03.977Z,1.70
2018-06-15T16:17:36.370Z,1.70
2018-06-15T16:20:08.834Z,1.87
2018-06-15T16:22:41.183Z,1.72
2018-06-15T16:25:13.558Z,2.30
2018-06-15T16:27:45.977Z,2.27
2018-06-15T16:30:18.609Z,2.05
2018-06-15T16:32:51.282Z,1.90
2018-06-15T16:35:23.961Z,1.72
2018-06-15T16:37:56.362Z,2.00
2018-06-15T16:40:28.760Z,1.98
2018-06-15T16:43:01.193Z,2.30
2018-06-15T16:45:33.574Z,2.02
2018-06-15T16:48:05.961Z,1.70
2018-06-15T16:50:38.379Z,2.00
2018-06-15T16:53:10.792Z,1.92
2018-06-15T16:55:43.196Z,2.25
2018-06-15T16:58:15.897Z,2.22
2018-06-15T17:00:48.306Z,1.67
2018-06-15T17:03:21.366Z,2.00
2018-06-15T17:05:54.030Z,1.90
2018-06-15T17:08:26.709Z,2.35
2018-06-15T17:10:59.212Z,1.82
2018-06-15T17:13:31.610Z,2.00
2018-06-15T17:16:04.320Z,1.72
2018-06-15T17:18:37.053Z,2.25
2018-06-15T17:21:09.414Z,2.10
2018-06-15T17:23:42.094Z,2.25
2018-06-15T17:26:14.774Z,3.20
2018-06-15T17:28:47.442Z,3.35
2018-06-15T17:31:20.192Z,2.37
2018-06-15T17:33:52.568Z,2.67
2018-06-15T17:36:24.965Z,2.33
2018-06-15T17:38:57.218Z,2.65
2018-06-15T17:41:29.719Z,2.12
2018-06-15T17:44:02.121Z,2.75
2018-06-15T17:46:34.874Z,2.65
2018-06-15T17:49:07.695Z,2.37
2018-06-15T17:51:40.055Z,2.30
2018-06-15T17:54:12.457Z,2.40
2018-06-15T17:56:44.861Z,2.40
2018-06-15T17:59:17.267Z,2.50
2018-06-15T18:01:49.906Z,2.42
2018-06-15T18:04:22.424Z,2.58
2018-06-15T18:06:55.147Z,2.40
2018-06-15T18:09:27.845Z,2.62
2018-06-15T18:12:00.264Z,2.45
2018-06-15T18:14:32.915Z,3.17
2018-06-15T18:17:05.303Z,2.87
2018-06-15T18:19:37.989Z,2.98
2018-06-15T18:22:10.378Z,2.83
2018-06-15T18:24:43.036Z,2.83
2018-06-15T18:27:15.445Z,2.83
2018-06-15T18:29:48.158Z,2.63
2018-06-15T18:32:20.801Z,3.23
2018-06-15T18:34:53.493Z,2.70
2018-06-15T18:37:25.886Z,2.70
2018-06-15T18:39:58.566Z,2.60
2018-06-15T18:42:30.971Z,2.70
2018-06-15T18:45:03.383Z,3.22
2018-06-15T18:47:35.818Z,3.00
2018-06-15T18:50:08.263Z,2.50
2018-06-15T18:52:40.643Z,2.53
2018-06-15T18:55:13.070Z,2.97
2018-06-15T18:57:45.454Z,3.10
2018-06-15T19:00:18.160Z,3.03
2018-06-15T19:02:50.548Z,2.90
2018-06-15T19:05:22.961Z,2.67
2018-06-15T19:07:55.370Z,3.13
2018-06-15T19:10:28.029Z,2.80
2018-06-15T19:13:00.698Z,2.50
2018-06-15T19:15:33.410Z,3.10
2018-06-15T19:18:05.866Z,2.80
2018-06-15T19:20:38.541Z,3.20
2018-06-15T19:23:11.241Z,2.90
2018-06-15T19:25:43.906Z,3.30
2018-06-15T19:28:16.207Z,3.00
2018-06-15T19:30:48.971Z,3.00
2018-06-15T19:33:21.357Z,3.03
2018-06-15T19:35:53.855Z,3.13
2018-06-15T19:38:26.251Z,3.30
2018-06-15T19:40:58.673Z,3.10
2018-06-15T19:43:31.140Z,3.00
2018-06-15T19:46:03.705Z,2.70
2018-06-15T19:48:36.113Z,3.37
2018-06-15T19:51:08.524Z,3.03
2018-06-15T19:53:40.926Z,3.07
2018-06-15T19:56:13.326Z,3.00
2018-06-15T19:58:45.705Z,2.90
2018-06-15T20:01:18.332Z,2.80
2018-06-15T20:03:50.997Z,3.13
2018-06-15T20:06:23.405Z,2.90
2018-06-15T20:08:56.180Z,2.83
2018-06-15T20:11:28.840Z,3.40
2018-06-15T20:14:02.056Z,2.83
2018-06-15T20:16:34.470Z,3.10
2018-06-15T20:19:07.210Z,3.07
2018-06-15T20:21:39.952Z,3.00
2018-06-15T20:24:12.341Z,3.03
2018-06-15T20:26:44.744Z,2.70
2018-06-15T20:29:17.438Z,3.60
2018-06-15T20:31:50.558Z,3.23
2018-06-15T20:34:22.986Z,3.60
2018-06-15T20:36:55.479Z,3.43
2018-06-15T20:39:27.873Z,3.50
2018-06-15T20:42:00.489Z,3.53
2018-06-15T20:44:32.878Z,3.37
2018-06-15T20:47:05.543Z,3.93
2018-06-15T20:49:37.986Z,3.80
2018-06-15T20:52:10.394Z,3.53
2018-06-15T20:54:42.794Z,4.30
2018-06-15T20:57:15.250Z,4.63
2018-06-15T20:59:48.017Z,4.53
2018-06-15T21:02:20.450Z,4.23
2018-06-15T21:04:52.847Z,4.70
2018-06-15T21:07:25.335Z,3.87
2018-06-15T21:09:57.826Z,4.80
2018-06-15T21:12:30.356Z,5.00
2018-06-15T21:15:02.847Z,6.87
2018-06-15T21:17:35.438Z,5.93
2018-06-15T21:20:07.870Z,5.30
2018-06-15T21:22:40.318Z,5.63
2018-06-15T21:25:12.709Z,4.73
2018-06-15T21:27:45.409Z,5.07
2018-06-15T21:30:18.074Z,5.20
2018-06-15T21:32:50.762Z,5.10
2018-06-15T21:35:23.177Z,4.43
2018-06-15T21:37:55.917Z,5.00
2018-06-15T21:40:28.604Z,4.40
2018-06-15T21:43:01.026Z,5.03
2018-06-15T21:45:33.673Z,4.23
2018-06-15T21:48:06.335Z,4.93
2018-06-15T21:50:39.346Z,4.80
2018-06-15T21:53:11.746Z,5.73
2018-06-15T21:55:44.694Z,5.47
2018-06-15T21:58:17.334Z,5.83
2018-06-15T22:00:50.039Z,5.57
2018-06-15T22:03:22.526Z,5.13
2018-06-15T22:05:55.218Z,5.10
2018-06-15T22:08:27.726Z,6.47
2018-06-15T22:11:00.141Z,6.47
2018-06-15T22:13:32.833Z,5.87
2018-06-15T22:16:05.234Z,5.03
2018-06-15T22:18:37.625Z,5.13
2018-06-15T22:21:10.334Z,5.20
2018-06-15T22:23:43.001Z,5.27
2018-06-15T22:26:15.684Z,5.40
2018-06-15T22:28:48.094Z,5.47
2018-06-15T22:31:20.530Z,4.93
2018-06-15T22:33:52.930Z,5.67
2018-06-15T22:36:25.358Z,5.67
2018-06-15T22:38:57.751Z,5.70
2018-06-15T22:41:30.459Z,6.33
2018-06-15T22:44:02.898Z,5.60
2018-06-15T22:46:35.577Z,6.00
2018-06-15T22:49:08.217Z,6.33
2018-06-15T22:51:40.621Z,5.73
2018-06-15T22:54:13.133Z,6.20
2018-06-15T22:56:45.550Z,6.80
2018-06-15T22:59:18.495Z,7.17
2018-06-15T23:01:51.154Z,6.80
2018-06-15T23:04:23.857Z,7.47
2018-06-15T23:06:56.673Z,7.90
2018-06-15T23:09:29.678Z,7.20
2018-06-15T23:12:02.118Z,7.30
2018-06-15T23:14:34.563Z,7.10
2018-06-15T23:17:06.934Z,6.43
2018-06-15T23:19:39.582Z,6.20
2018-06-15T23:22:12.270Z,5.70
2018-06-15T23:24:44.925Z,5.87
2018-06-15T23:27:17.697Z,5.30
2018-06-15T23:29:50.138Z,6.10
2018-06-15T23:32:22.543Z,5.87
2018-06-15T23:34:54.963Z,6.73
2018-06-15T23:37:27.371Z,6.30
2018-06-15T23:39:59.762Z,6.77
2018-06-15T23:42:32.200Z,7.07
2018-06-15T23:45:04.829Z,6.17
2018-06-15T23:47:37.550Z,5.80
2018-06-15T23:50:09.978Z,5.70
2018-06-15T23:52:42.397Z,5.90
2018-06-15T23:55:14.786Z,5.57
2018-06-15T23:57:47.202Z,5.27
